Castelli, Argentina
Current Conditions -  °F | °C
As of 12:00 AM on Wednesday 26 Nov 2014 (Local Time) from SAEZ Reporting Station
Clear Clear  
Wind Chill: 61°   Ceiling: Unl
Heat Index: 61°   Visibility: 6mi
Dew Point: 52°   Wind: 3mph
Humidity: 72%   Direction: 90°E
Pressure: 29.94"   Gusts: NA
Location:  36.1°S, 57.78°W
Report Text: SAEZ 260300Z 09003KT CAVOK 16/11 Q1014
Loading
Personal Weather Stations






























Interactive Weather Map New forecast layout! Learn more

10-Day Weather Forecast

Advertisements
Track Severe Weather on mobile